MMLM/LMM METAR and TAF weather

Enter ICAO airport designator
Station Type Date Time Source
MMLM METAR 2019/10/21 03:42 UTC NOAA

MMLM 210342Z 28008KT 10SM SKC 26/20 A2976


Station Type Date Time Source
MMLM Decoded METAR 2019/10/21 03:42 UTC NOAA

Los Mochis Airport, Mexico (MMLM) 25-41N 109-05W
Oct 20, 2019 - 11:42 PM EDT / 2019.10.21 0342 UTC
Wind: from the W (280 degrees) at 9 MPH (8 KT):0
Visibility: 10 mile(s):0
Sky conditions: clear
Temperature: 78 F (26 C)
Dew Point: 68 F (20 C)
Relative Humidity: 69%
Pressure (altimeter): 29.76 in. Hg (1007 hPa)
ob: MMLM 210342Z 28008KT 10SM SKC 26/20 A2976
cycle: 3

Station Type Date Time Source
MMLM TAF 2019/10/21 06:37 UTC NOAA

TAF MMLM 210435Z 2106/2206 26005KT P6SM SKC
FM211800 26012KT P6SM SCT030
FM220400 24005KT P6SM SKC

Example: see airport list